Time;durP1;ratioP1;P1;durP2;ratioP2;P2;SDS_P1;SDS_P2;PMS_P1;PMS_P2;Temp;Humidity;BMP_temperature;BMP_pressure;BME280_temperature;BME280_humidity;BME280_pressure;Samples;Min_cycle;Max_cycle;Signal;HPM_P1;HPM_P2
2022/06/08 00:01:44;;;;;;;15.68;11.07;;;;;;;;;;4376190;32;20077;-80
2022/06/08 00:04:12;;;;;;;15.88;12.40;;;;;;;;;;4374957;32;20039;-80
2022/06/08 00:10:06;;;;;;;;;;;;;;;;;;;;;
2022/06/08 00:21:53;;;;;;;20.10;12.35;;;;;;;;;;4271284;33;20029;-79
2022/06/08 00:39:54;;;;;;;31.87;17.40;;;;;;;;;;4260681;33;20047;-80
2022/06/08 01:02:58;;;;;;;41.78;25.58;;;;;;;;;;4271968;33;20540;-80
2022/06/08 01:08:53;;;;;;;41.88;27.40;;;;;;;;;;4272901;33;20419;-80
2022/06/08 01:14:43;;;;;;;48.05;30.02;;;;;;;;;;4273986;33;20043;-78
2022/06/08 01:23:08;;;;;;;51.03;32.78;;;;;;;;;;4244902;33;20054;-79
2022/06/08 01:25:52;;;;;;;52.42;34.78;;;;;;;;;;4286574;33;20020;-78
2022/06/08 01:38:12;;;;;;;51.83;34.40;;;;;;;;;;4329728;33;20458;-78
2022/06/08 01:44:18;;;;;;;58.50;36.90;;;;;;;;;;4330824;33;20071;-78
2022/06/08 01:50:19;;;;;;;59.05;36.70;;;;;;;;;;4325558;33;20078;-78
2022/06/08 02:36:49;;;;;;;48.38;32.50;;;;;;;;;;4377650;32;20072;-79
2022/06/08 02:39:18;;;;;;;50.30;31.17;;;;;;;;;;4376753;32;20450;-79
2022/06/08 02:54:14;;;;;;;49.13;32.53;;;;;;;;;;4330369;33;20138;-79
2022/06/08 03:00:30;;;;;;;;;;;;;;;;;;;;;
2022/06/08 03:32:01;;;;;;;34.60;24.95;;;;;;;;;;4301222;33;20024;-78
2022/06/08 04:05:35;;;;;;;;;;;;;;;;;;;;;
2022/06/08 04:08:19;;;;;;;28.10;20.37;;;;;;;;;;4250065;33;20068;-78
2022/06/08 04:41:33;;;;;;;26.15;16.17;;;;;;;;;;4302505;33;20390;-78
2022/06/08 04:44:00;;;;;;;25.48;17.60;;;;;;;;;;4313822;33;20032;-79
2022/06/08 04:46:29;;;;;;;20.23;16.17;;;;;;;;;;4338827;33;20039;-78
2022/06/08 04:49:07;;;;;;;;;;;;;;;;;;;;;
2022/06/08 05:09:55;;;;;;;;;;;;;;;;;;;;;
2022/06/08 05:16:00;;;;;;;18.35;15.10;;;;;;;;;;4244334;33;20485;-78
2022/06/08 05:25:13;;;;;;;26.15;14.68;;;;;;;;;;4259282;33;20091;-79
2022/06/08 05:27:39;;;;;;;17.65;14.20;;;;;;;;;;4311354;33;20066;-78
2022/06/08 05:30:27;;;;;;;18.48;14.70;;;;;;;;;;4316131;33;20040;-79
2022/06/08 05:32:56;;;;;;;21.33;14.27;;;;;;;;;;4328360;33;20043;-79
2022/06/08 05:35:23;;;;;;;17.48;14.07;;;;;;;;;;4346607;33;20467;-79
2022/06/08 05:37:49;;;;;;;18.15;13.90;;;;;;;;;;4346670;33;20438;-79
2022/06/08 05:40:15;;;;;;;17.67;13.20;;;;;;;;;;4347062;32;20052;-79
2022/06/08 05:42:41;;;;;;;18.50;13.68;;;;;;;;;;4346628;33;20054;-78
2022/06/08 05:45:07;;;;;;;17.15;13.73;;;;;;;;;;4346922;33;20129;-78
2022/06/08 05:47:32;;;;;;;16.85;13.55;;;;;;;;;;4347135;33;20108;-78
2022/06/08 05:49:58;;;;;;;19.42;13.02;;;;;;;;;;4346689;33;20066;-78
2022/06/08 05:55:27;;;;;;;19.35;12.25;;;;;;;;;;4346856;33;20074;-76
2022/06/08 05:57:52;;;;;;;19.92;13.65;;;;;;;;;;4346595;33;20028;-78
2022/06/08 06:00:30;;;;;;;;;;;;;;;;;;;;;
2022/06/08 06:03:20;;;;;;;16.00;12.15;;;;;;;;;;4346968;32;20035;-77
2022/06/08 06:05:57;;;;;;;20.67;12.27;;;;;;;;;;4346771;33;20031;-79
2022/06/08 06:11:42;;;;;;;11.20;10.00;;;;;;;;;;4344375;32;20046;-78
2022/06/08 06:14:35;;;;;;;21.12;10.68;;;;;;;;;;4376037;32;20065;-79
2022/06/08 06:17:01;;;;;;;12.65;9.15;;;;;;;;;;4376125;32;20030;-79
2022/06/08 06:19:29;;;;;;;14.38;9.68;;;;;;;;;;4373976;32;20106;-78
2022/06/08 06:21:55;;;;;;;14.10;10.52;;;;;;;;;;4346185;33;20092;-78
2022/06/08 06:24:20;;;;;;;16.73;10.00;;;;;;;;;;4345831;33;20058;-77
2022/06/08 06:26:45;;;;;;;19.17;10.70;;;;;;;;;;4346696;33;20036;-79
2022/06/08 06:29:11;;;;;;;15.95;10.10;;;;;;;;;;4346639;33;20365;-78
2022/06/08 06:31:36;;;;;;;14.90;9.30;;;;;;;;;;4346074;33;20097;-79
2022/06/08 06:34:02;;;;;;;15.30;9.75;;;;;;;;;;4356693;32;20346;-78
2022/06/08 06:36:27;;;;;;;13.35;10.93;;;;;;;;;;4376440;32;20396;-78
2022/06/08 06:38:54;;;;;;;16.37;9.98;;;;;;;;;;4376183;32;20109;-78
2022/06/08 06:41:20;;;;;;;12.37;9.60;;;;;;;;;;4376030;32;20076;-78
2022/06/08 06:43:45;;;;;;;12.45;8.95;;;;;;;;;;4375143;32;20034;-76
2022/06/08 06:46:11;;;;;;;13.23;9.05;;;;;;;;;;4375544;32;20100;-78
2022/06/08 06:48:41;;;;;;;16.77;9.50;;;;;;;;;;4375943;32;20059;-78
2022/06/08 06:51:07;;;;;;;16.48;9.95;;;;;;;;;;4359782;32;20089;-78
2022/06/08 06:53:33;;;;;;;11.18;8.70;;;;;;;;;;4362279;32;20349;-78
2022/06/08 06:55:58;;;;;;;14.85;9.65;;;;;;;;;;4360436;32;20404;-78
2022/06/08 06:58:23;;;;;;;13.45;9.35;;;;;;;;;;4360944;32;20346;-80
2022/06/08 07:00:49;;;;;;;11.23;8.48;;;;;;;;;;4360408;32;20438;-78
2022/06/08 07:03:17;;;;;;;11.00;8.00;;;;;;;;;;4361262;32;20039;-78
2022/06/08 07:05:42;;;;;;;12.13;8.63;;;;;;;;;;4375657;32;20057;-77
2022/06/08 07:08:08;;;;;;;15.18;8.88;;;;;;;;;;4357911;32;20035;-79
2022/06/08 07:10:34;;;;;;;13.98;8.35;;;;;;;;;;4354182;32;20077;-79
2022/06/08 07:12:59;;;;;;;14.02;7.78;;;;;;;;;;4360219;32;20425;-79
2022/06/08 07:15:26;;;;;;;13.95;8.77;;;;;;;;;;4360945;32;20027;-77
2022/06/08 07:17:51;;;;;;;10.45;7.95;;;;;;;;;;4360550;32;20043;-79
2022/06/08 07:20:18;;;;;;;10.57;8.05;;;;;;;;;;4369896;32;20031;-78
2022/06/08 07:22:50;;;;;;;8.82;7.43;;;;;;;;;;4375296;32;20408;-80
2022/06/08 07:25:16;;;;;;;13.27;8.98;;;;;;;;;;4375528;32;20363;-78
2022/06/08 07:27:45;;;;;;;13.62;7.90;;;;;;;;;;4385684;32;20168;-79
2022/06/08 07:30:14;;;;;;;10.45;7.78;;;;;;;;;;4376592;32;20077;-77
2022/06/08 07:32:41;;;;;;;13.98;8.48;;;;;;;;;;4370939;32;20100;-79
2022/06/08 07:35:16;;;;;;;14.00;8.30;;;;;;;;;;4387571;32;20101;-79
2022/06/08 07:37:41;;;;;;;10.45;8.32;;;;;;;;;;4380254;32;20054;-78
2022/06/08 07:40:07;;;;;;;10.98;8.40;;;;;;;;;;4364170;32;20089;-78
2022/06/08 07:42:33;;;;;;;10.60;7.12;;;;;;;;;;4377250;32;20027;-78
2022/06/08 07:45:01;;;;;;;13.25;7.65;;;;;;;;;;4379167;32;20028;-78
2022/06/08 07:47:26;;;;;;;13.50;7.40;;;;;;;;;;4378092;32;20035;-78
2022/06/08 07:49:51;;;;;;;12.50;8.80;;;;;;;;;;4377925;32;20077;-79
2022/06/08 07:52:19;;;;;;;12.30;7.93;;;;;;;;;;4378167;32;20116;-78
2022/06/08 07:54:45;;;;;;;13.38;8.15;;;;;;;;;;4377880;32;20084;-77
2022/06/08 07:57:18;;;;;;;9.05;7.32;;;;;;;;;;4377789;32;20042;-80
2022/06/08 07:59:44;;;;;;;10.00;6.57;;;;;;;;;;4378444;32;20039;-77
2022/06/08 08:02:10;;;;;;;16.00;8.63;;;;;;;;;;4378911;32;20022;-79
2022/06/08 08:04:36;;;;;;;12.98;8.32;;;;;;;;;;4377961;32;20093;-78
2022/06/08 08:07:04;;;;;;;10.77;9.13;;;;;;;;;;4377534;32;20043;-79
2022/06/08 08:09:33;;;;;;;16.50;10.88;;;;;;;;;;4378367;32;20036;-78
2022/06/08 08:11:59;;;;;;;13.60;8.88;;;;;;;;;;4366745;32;20053;-80
2022/06/08 08:14:24;;;;;;;15.45;9.05;;;;;;;;;;4362844;32;20381;-77
2022/06/08 08:16:50;;;;;;;11.18;8.80;;;;;;;;;;4363430;32;20376;-78
2022/06/08 08:19:19;;;;;;;11.63;8.88;;;;;;;;;;4363102;32;20061;-80
2022/06/08 08:21:48;;;;;;;11.38;9.10;;;;;;;;;;4362937;32;20085;-78
2022/06/08 08:24:13;;;;;;;13.52;8.95;;;;;;;;;;4362313;32;20058;-78
2022/06/08 08:26:39;;;;;;;14.30;9.23;;;;;;;;;;4362734;32;20036;-78
2022/06/08 08:29:04;;;;;;;10.98;8.57;;;;;;;;;;4362640;32;20118;-79
2022/06/08 08:31:30;;;;;;;11.75;8.40;;;;;;;;;;4362963;32;20031;-77
2022/06/08 08:33:58;;;;;;;9.93;6.95;;;;;;;;;;4363045;32;20033;-76
2022/06/08 08:36:27;;;;;;;13.62;7.78;;;;;;;;;;4362195;32;20345;-78
2022/06/08 08:38:53;;;;;;;11.88;7.32;;;;;;;;;;4362616;32;20035;-78
2022/06/08 08:44:26;;;;;;;9.40;6.22;;;;;;;;;;4362933;32;20054;-77
2022/06/08 08:47:12;;;;;;;12.80;6.53;;;;;;;;;;4362405;32;20081;-79
2022/06/08 08:49:39;;;;;;;11.43;6.55;;;;;;;;;;4362243;32;20112;-78
2022/06/08 08:52:24;;;;;;;16.55;9.30;;;;;;;;;;4362040;32;20039;-76
2022/06/08 08:54:57;;;;;;;14.07;8.57;;;;;;;;;;4362693;32;20074;-75
2022/06/08 08:57:33;;;;;;;10.02;8.23;;;;;;;;;;4362433;32;20409;-79
2022/06/08 09:00:12;;;;;;;11.35;8.32;;;;;;;;;;4363513;32;20350;-79
2022/06/08 09:05:21;;;;;;;11.85;6.30;;;;;;;;;;4362855;32;20058;-76
2022/06/08 09:07:49;;;;;;;14.25;6.55;;;;;;;;;;4362102;32;20066;-79
2022/06/08 09:10:16;;;;;;;14.15;6.32;;;;;;;;;;4362204;32;20050;-76
2022/06/08 09:12:44;;;;;;;8.30;5.57;;;;;;;;;;4362568;32;20036;-76
2022/06/08 09:15:26;;;;;;;9.65;5.15;;;;;;;;;;4362161;32;20464;-79
2022/06/08 09:17:56;;;;;;;11.70;5.70;;;;;;;;;;4361801;33;20023;-80
2022/06/08 09:20:29;;;;;;;6.90;4.97;;;;;;;;;;4361856;32;20023;-76
2022/06/08 09:23:00;;;;;;;9.65;4.40;;;;;;;;;;4361518;32;20102;-79
2022/06/08 09:25:28;;;;;;;12.13;5.25;;;;;;;;;;4363284;32;20097;-79
2022/06/08 09:27:56;;;;;;;11.57;5.25;;;;;;;;;;4361554;32;20050;-78
2022/06/08 09:30:31;;;;;;;11.48;5.10;;;;;;;;;;4363547;32;20035;-78
2022/06/08 09:32:59;;;;;;;10.77;5.32;;;;;;;;;;4363422;32;20035;-78
2022/06/08 09:35:33;;;;;;;16.17;5.35;;;;;;;;;;4361654;32;20074;-78
2022/06/08 09:38:02;;;;;;;10.82;5.62;;;;;;;;;;4362088;32;20323;-78
2022/06/08 09:40:40;;;;;;;7.12;4.37;;;;;;;;;;4360972;32;20477;-74
2022/06/08 09:43:25;;;;;;;8.30;4.47;;;;;;;;;;4363029;32;20049;-79
2022/06/08 09:45:52;;;;;;;7.45;3.97;;;;;;;;;;4362419;32;20027;-78
2022/06/08 09:51:28;;;;;;;11.98;4.93;;;;;;;;;;4361300;32;20038;-77
2022/06/08 09:53:56;;;;;;;8.13;4.40;;;;;;;;;;4361017;32;20344;-78
2022/06/08 09:56:24;;;;;;;11.10;5.15;;;;;;;;;;4361284;32;20024;-78
2022/06/08 09:58:49;;;;;;;7.82;4.57;;;;;;;;;;4360117;32;20027;-76
2022/06/08 10:01:44;;;;;;;10.93;5.10;;;;;;;;;;4361393;32;20066;-75
2022/06/08 10:04:15;;;;;;;14.18;4.55;;;;;;;;;;4354565;33;20049;-75
2022/06/08 10:06:45;;;;;;;9.55;4.20;;;;;;;;;;4361186;32;20028;-77
2022/06/08 10:09:27;;;;;;;9.85;4.65;;;;;;;;;;4347681;33;20020;-78
2022/06/08 10:12:18;;;;;;;14.77;5.82;;;;;;;;;;4347938;32;20062;-76
2022/06/08 10:14:47;;;;;;;15.23;4.70;;;;;;;;;;4344648;33;20031;-79
2022/06/08 10:17:12;;;;;;;11.12;4.80;;;;;;;;;;4347273;33;20044;-77
2022/06/08 10:19:56;;;;;;;9.55;4.75;;;;;;;;;;4333262;33;20417;-74
2022/06/08 10:22:23;;;;;;;11.27;6.15;;;;;;;;;;4347188;33;20032;-79
2022/06/08 10:24:50;;;;;;;13.95;6.70;;;;;;;;;;4346820;33;20027;-78
2022/06/08 10:27:18;;;;;;;17.60;7.47;;;;;;;;;;4332914;33;20532;-78
2022/06/08 10:29:51;;;;;;;20.52;7.90;;;;;;;;;;4346367;33;20114;-80
2022/06/08 10:32:24;;;;;;;15.93;8.80;;;;;;;;;;4347084;33;20027;-79
2022/06/08 10:34:56;;;;;;;11.43;7.40;;;;;;;;;;4345976;33;20024;-79
2022/06/08 10:37:29;;;;;;;22.15;8.23;;;;;;;;;;4347348;33;20063;-79
2022/06/08 10:39:54;;;;;;;14.70;8.18;;;;;;;;;;4349283;33;20050;-79
2022/06/08 10:42:41;;;;;;;15.25;8.52;;;;;;;;;;4360849;32;20035;-77
2022/06/08 10:45:24;;;;;;;17.42;9.30;;;;;;;;;;4361544;32;20057;-78
2022/06/08 10:48:05;;;;;;;16.92;11.18;;;;;;;;;;4360327;33;20042;-78
2022/06/08 10:50:32;;;;;;;16.00;9.95;;;;;;;;;;4360931;32;20028;-78
2022/06/08 10:54:53;;;;;;;15.55;9.40;;;;;;;;;;4361467;32;20058;-80
2022/06/08 10:55:44;;;;;;;14.27;9.68;;;;;;;;;;4361017;32;20470;-80
2022/06/08 10:58:14;;;;;;;14.95;8.95;;;;;;;;;;4360494;32;20081;-79
2022/06/08 11:00:42;;;;;;;10.23;6.50;;;;;;;;;;4361012;32;20081;-80
2022/06/08 11:03:20;;;;;;;10.93;6.03;;;;;;;;;;4360583;32;20101;-80
2022/06/08 11:05:46;;;;;;;14.85;6.57;;;;;;;;;;4361026;32;20443;-77
2022/06/08 11:08:21;;;;;;;14.55;6.03;;;;;;;;;;4360675;32;20084;-80
2022/06/08 11:10:51;;;;;;;10.48;5.68;;;;;;;;;;4360066;32;20047;-79
2022/06/08 11:13:19;;;;;;;13.55;5.43;;;;;;;;;;4361635;32;20585;-80
2022/06/08 11:15:50;;;;;;;10.75;4.32;;;;;;;;;;4360650;32;20057;-78
2022/06/08 11:18:18;;;;;;;6.50;3.42;;;;;;;;;;4360519;32;20058;-78
2022/06/08 11:21:15;;;;;;;9.65;4.18;;;;;;;;;;4360808;32;20152;-79
2022/06/08 11:23:49;;;;;;;9.43;3.83;;;;;;;;;;4342870;33;20097;-77
2022/06/08 11:26:20;;;;;;;8.52;3.80;;;;;;;;;;4360129;33;20074;-79
2022/06/08 11:28:48;;;;;;;9.73;3.65;;;;;;;;;;4359983;33;20042;-78
2022/06/08 11:31:26;;;;;;;10.73;3.92;;;;;;;;;;4360133;33;20058;-77
2022/06/08 11:33:58;;;;;;;11.63;5.60;;;;;;;;;;4360128;32;20061;-78
2022/06/08 11:36:41;;;;;;;11.70;3.97;;;;;;;;;;4360777;32;20019;-78
2022/06/08 11:39:25;;;;;;;11.05;5.25;;;;;;;;;;4361874;32;20067;-76
2022/06/08 11:41:59;;;;;;;10.35;5.25;;;;;;;;;;4344834;33;20111;-76
2022/06/08 11:44:26;;;;;;;10.15;4.87;;;;;;;;;;4345744;33;20027;-78
2022/06/08 11:47:00;;;;;;;11.98;4.72;;;;;;;;;;4345705;33;20055;-78
2022/06/08 11:49:38;;;;;;;15.80;4.95;;;;;;;;;;4345980;33;20534;-78
2022/06/08 11:52:17;;;;;;;10.13;4.90;;;;;;;;;;4345587;33;20358;-77
2022/06/08 11:54:43;;;;;;;12.07;5.62;;;;;;;;;;4345935;33;20107;-78
2022/06/08 11:57:15;;;;;;;12.20;5.75;;;;;;;;;;4345573;33;20331;-78
2022/06/08 12:00:07;;;;;;;9.95;5.70;;;;;;;;;;4345037;33;20389;-79
2022/06/08 12:02:36;;;;;;;14.40;6.75;;;;;;;;;;4344142;33;20094;-78
2022/06/08 12:05:03;;;;;;;11.23;6.00;;;;;;;;;;4347021;33;20087;-79
2022/06/08 12:07:36;;;;;;;14.15;5.85;;;;;;;;;;4344450;33;20316;-79
2022/06/08 12:10:03;;;;;;;22.62;9.68;;;;;;;;;;4354333;32;20422;-78
2022/06/08 12:12:49;;;;;;;15.55;7.05;;;;;;;;;;4374752;32;20023;-79
2022/06/08 12:21:28;;;;;;;11.48;6.45;;;;;;;;;;4375188;32;20073;-79
2022/06/08 12:23:59;;;;;;;12.52;6.87;;;;;;;;;;4377870;32;20057;-79
2022/06/08 12:26:25;;;;;;;12.48;6.87;;;;;;;;;;4376413;32;20076;-80
2022/06/08 12:29:00;;;;;;;10.82;7.43;;;;;;;;;;4377751;32;20085;-78
2022/06/08 12:31:31;;;;;;;14.02;8.00;;;;;;;;;;4378546;32;20049;-79
2022/06/08 12:33:56;;;;;;;14.98;7.85;;;;;;;;;;4378588;32;20019;-80
2022/06/08 12:36:26;;;;;;;11.30;7.80;;;;;;;;;;4378909;32;20307;-80
2022/06/08 12:39:04;;;;;;;13.82;7.53;;;;;;;;;;4379122;32;20102;-79
2022/06/08 12:41:48;;;;;;;11.48;7.53;;;;;;;;;;4363847;32;20023;-79
2022/06/08 12:44:28;;;;;;;14.35;8.32;;;;;;;;;;4363600;32;20098;-79
2022/06/08 12:46:58;;;;;;;10.43;7.25;;;;;;;;;;4378459;32;20046;-80
2022/06/08 12:49:27;;;;;;;11.05;7.30;;;;;;;;;;4378915;32;20026;-79
2022/06/08 12:52:18;;;;;;;13.50;8.05;;;;;;;;;;4377776;32;20042;-78
2022/06/08 12:54:46;;;;;;;14.98;8.35;;;;;;;;;;4360967;32;20412;-79
2022/06/08 12:57:18;;;;;;;9.68;7.72;;;;;;;;;;4378295;32;20055;-78
2022/06/08 12:59:45;;;;;;;15.43;8.90;;;;;;;;;;4380857;32;20035;-78
2022/06/08 13:02:12;;;;;;;12.10;7.50;;;;;;;;;;4384569;32;20061;-79
2022/06/08 13:04:40;;;;;;;12.15;8.05;;;;;;;;;;4386309;32;20109;-79
2022/06/08 13:07:06;;;;;;;10.30;8.43;;;;;;;;;;4382028;32;20047;-79
2022/06/08 13:09:34;;;;;;;11.02;9.07;;;;;;;;;;4379462;32;20061;-79
2022/06/08 13:12:00;;;;;;;8.80;7.90;;;;;;;;;;4377709;32;20077;-79
2022/06/08 13:14:26;;;;;;;10.07;7.87;;;;;;;;;;4382028;32;20027;-79
2022/06/08 13:16:51;;;;;;;11.65;7.80;;;;;;;;;;4378483;32;20080;-79
2022/06/08 13:19:17;;;;;;;12.18;8.77;;;;;;;;;;4378481;32;20104;-80
2022/06/08 13:21:43;;;;;;;13.25;9.50;;;;;;;;;;4377145;32;20057;-80
2022/06/08 13:24:10;;;;;;;9.25;5.78;;;;;;;;;;4378612;32;20057;-75
2022/06/08 13:26:36;;;;;;;9.45;6.95;;;;;;;;;;4378746;32;20069;-79
2022/06/08 13:29:02;;;;;;;8.02;6.18;;;;;;;;;;4377826;32;20042;-80
2022/06/08 13:31:27;;;;;;;7.28;6.05;;;;;;;;;;4377803;32;20062;-79
2022/06/08 13:33:56;;;;;;;8.70;6.05;;;;;;;;;;4378451;32;20026;-76
2022/06/08 13:36:25;;;;;;;8.23;6.12;;;;;;;;;;4364323;32;20061;-79
2022/06/08 13:38:51;;;;;;;9.75;6.57;;;;;;;;;;4377869;32;20096;-79
2022/06/08 13:41:16;;;;;;;5.97;5.47;;;;;;;;;;4368363;32;20057;-79
2022/06/08 13:43:42;;;;;;;8.75;6.47;;;;;;;;;;4362892;32;20051;-80
2022/06/08 13:46:15;;;;;;;9.48;8.50;;;;;;;;;;4362287;32;20031;-80
2022/06/08 13:48:42;;;;;;;6.95;6.10;;;;;;;;;;4362337;32;20053;-76
2022/06/08 13:51:08;;;;;;;8.82;6.60;;;;;;;;;;4362518;32;20126;-80
2022/06/08 13:53:34;;;;;;;8.38;6.30;;;;;;;;;;4362676;32;20023;-78
2022/06/08 13:56:01;;;;;;;7.40;6.57;;;;;;;;;;4362603;32;20073;-78
2022/06/08 13:58:26;;;;;;;8.38;7.12;;;;;;;;;;4362231;32;20027;-80
2022/06/08 14:00:53;;;;;;;7.22;6.20;;;;;;;;;;4361552;32;20421;-79
2022/06/08 14:03:23;;;;;;;7.80;5.97;;;;;;;;;;4361383;32;20349;-77
2022/06/08 14:14:04;;;;;;;7.50;6.72;;;;;;;;;;4361168;32;20050;-78
2022/06/08 14:16:35;;;;;;;7.40;6.55;;;;;;;;;;4360829;32;20032;-81
2022/06/08 14:19:01;;;;;;;8.35;7.28;;;;;;;;;;4361210;32;20035;-80
2022/06/08 14:21:26;;;;;;;9.40;7.43;;;;;;;;;;4361307;33;20388;-79
2022/06/08 14:23:59;;;;;;;8.88;7.62;;;;;;;;;;4361428;33;20027;-80
2022/06/08 14:26:26;;;;;;;9.00;8.10;;;;;;;;;;4361347;32;20331;-80
2022/06/08 14:28:53;;;;;;;12.52;9.57;;;;;;;;;;4361227;32;20377;-79
2022/06/08 14:31:21;;;;;;;11.68;9.15;;;;;;;;;;4361549;32;20349;-80
2022/06/08 14:33:47;;;;;;;13.10;9.38;;;;;;;;;;4360651;32;20027;-79
2022/06/08 14:36:16;;;;;;;11.75;9.55;;;;;;;;;;4360503;32;20028;-76
2022/06/08 14:38:43;;;;;;;13.75;10.48;;;;;;;;;;4360527;32;20081;-80
2022/06/08 14:41:08;;;;;;;14.70;10.70;;;;;;;;;;4360683;32;20065;-80
2022/06/08 14:43:35;;;;;;;13.98;10.63;;;;;;;;;;4360912;32;20035;-76
2022/06/08 14:46:01;;;;;;;13.98;11.10;;;;;;;;;;4361663;32;20114;-78
2022/06/08 14:48:46;;;;;;;13.05;10.90;;;;;;;;;;4360498;32;20044;-78
2022/06/08 14:51:15;;;;;;;20.37;12.52;;;;;;;;;;4360738;33;20035;-77
2022/06/08 14:53:41;;;;;;;15.32;12.37;;;;;;;;;;4361062;32;20050;-77
2022/06/08 14:56:26;;;;;;;15.77;12.13;;;;;;;;;;4361001;33;20062;-77
2022/06/08 14:59:14;;;;;;;24.23;13.85;;;;;;;;;;4360521;32;20045;-79
2022/06/08 15:01:39;;;;;;;24.73;13.02;;;;;;;;;;4361031;32;20024;-78
2022/06/08 15:04:04;;;;;;;18.85;13.38;;;;;;;;;;4360059;32;20027;-79
2022/06/08 15:06:31;;;;;;;19.87;14.07;;;;;;;;;;4360210;32;20047;-79
2022/06/08 15:08:56;;;;;;;20.20;15.10;;;;;;;;;;4360242;32;20057;-79
2022/06/08 15:14:16;;;;;;;24.55;14.65;;;;;;;;;;4361381;32;20483;-76
2022/06/08 15:16:41;;;;;;;27.40;15.27;;;;;;;;;;4360765;32;20028;-79
2022/06/08 15:19:10;;;;;;;23.40;15.07;;;;;;;;;;4360179;32;20116;-80
2022/06/08 15:21:35;;;;;;;25.35;16.05;;;;;;;;;;4359976;32;20070;-79
2022/06/08 15:24:04;;;;;;;23.70;15.45;;;;;;;;;;4360229;32;20406;-80
2022/06/08 15:26:35;;;;;;;23.25;14.82;;;;;;;;;;4359996;32;20039;-78
2022/06/08 15:29:00;;;;;;;24.80;14.63;;;;;;;;;;4359615;33;20130;-79
2022/06/08 15:31:27;;;;;;;32.05;15.50;;;;;;;;;;4359870;33;20044;-79
2022/06/08 15:33:53;;;;;;;29.25;15.00;;;;;;;;;;4360865;33;20089;-80
2022/06/08 15:36:18;;;;;;;23.08;12.82;;;;;;;;;;4360038;33;20091;-79
2022/06/08 15:38:48;;;;;;;23.00;12.18;;;;;;;;;;4360336;32;20410;-80
2022/06/08 15:41:13;;;;;;;24.67;13.73;;;;;;;;;;4360369;33;20129;-80
2022/06/08 15:43:39;;;;;;;23.80;13.00;;;;;;;;;;4346217;33;20406;-78
2022/06/08 15:46:05;;;;;;;22.17;13.00;;;;;;;;;;4360402;33;20035;-77
2022/06/08 15:48:31;;;;;;;32.15;12.60;;;;;;;;;;4359711;33;20031;-78
2022/06/08 15:51:04;;;;;;;29.37;12.73;;;;;;;;;;4360063;33;20595;-78
2022/06/08 15:53:32;;;;;;;28.35;12.45;;;;;;;;;;4361382;32;20066;-77
2022/06/08 15:55:58;;;;;;;23.30;10.43;;;;;;;;;;4374936;32;20084;-79
2022/06/08 15:58:25;;;;;;;24.60;12.50;;;;;;;;;;4378287;32;20042;-79
2022/06/08 16:00:50;;;;;;;23.85;11.02;;;;;;;;;;4389011;32;20039;-79
2022/06/08 16:03:16;;;;;;;26.73;10.65;;;;;;;;;;4379412;32;20080;-78
2022/06/08 16:05:42;;;;;;;25.23;10.50;;;;;;;;;;4379100;32;20070;-74
2022/06/08 16:08:08;;;;;;;29.02;11.27;;;;;;;;;;4377725;32;20116;-78
2022/06/08 16:10:33;;;;;;;27.30;10.73;;;;;;;;;;4377627;32;20063;-76
2022/06/08 16:12:59;;;;;;;19.62;9.32;;;;;;;;;;4377944;32;20363;-76
2022/06/08 16:15:24;;;;;;;19.08;8.50;;;;;;;;;;4377722;32;20069;-77
2022/06/08 16:17:50;;;;;;;21.87;8.45;;;;;;;;;;4377807;32;20353;-77
2022/06/08 16:20:17;;;;;;;21.73;8.00;;;;;;;;;;4363582;32;20086;-79
2022/06/08 16:22:43;;;;;;;22.52;8.93;;;;;;;;;;4377851;32;20035;-74
2022/06/08 16:25:10;;;;;;;17.52;8.93;;;;;;;;;;4365507;32;20035;-79
2022/06/08 16:27:35;;;;;;;19.73;8.13;;;;;;;;;;4363339;32;20074;-78
2022/06/08 16:30:02;;;;;;;20.73;7.20;;;;;;;;;;4363484;32;20513;-78
2022/06/08 16:32:27;;;;;;;26.77;8.52;;;;;;;;;;4363111;32;20079;-79
2022/06/08 16:34:53;;;;;;;24.80;6.68;;;;;;;;;;4368404;32;20114;-78
2022/06/08 16:37:19;;;;;;;20.33;6.30;;;;;;;;;;4377288;32;20470;-79
2022/06/08 16:39:44;;;;;;;21.87;6.78;;;;;;;;;;4377136;32;20077;-76
2022/06/08 16:42:10;;;;;;;21.37;7.10;;;;;;;;;;4376886;32;20051;-78
2022/06/08 16:44:35;;;;;;;19.60;6.60;;;;;;;;;;4377170;32;20492;-79
2022/06/08 16:47:01;;;;;;;18.45;5.57;;;;;;;;;;4377480;32;20385;-79
2022/06/08 16:49:28;;;;;;;24.10;7.25;;;;;;;;;;4377239;32;20038;-79
2022/06/08 16:51:53;;;;;;;19.83;6.28;;;;;;;;;;4377100;32;20068;-80
2022/06/08 16:54:18;;;;;;;21.48;5.47;;;;;;;;;;4377699;32;20102;-78
2022/06/08 16:59:37;;;;;;;13.20;5.00;;;;;;;;;;4378250;32;20093;-76
2022/06/08 17:02:17;;;;;;;15.32;5.20;;;;;;;;;;4378128;32;20073;-79
2022/06/08 17:04:45;;;;;;;12.63;4.50;;;;;;;;;;4376104;32;20085;-79
2022/06/08 17:07:12;;;;;;;12.10;3.72;;;;;;;;;;4376794;32;20028;-74
2022/06/08 17:09:39;;;;;;;10.57;3.58;;;;;;;;;;4376802;32;20066;-77
2022/06/08 17:12:08;;;;;;;16.10;4.30;;;;;;;;;;4376750;32;20042;-79
2022/06/08 17:14:42;;;;;;;13.62;4.25;;;;;;;;;;4377221;32;20149;-78
2022/06/08 17:17:10;;;;;;;17.60;4.40;;;;;;;;;;4376579;32;20047;-77
2022/06/08 17:19:35;;;;;;;22.77;6.12;;;;;;;;;;4376399;32;20452;-79
2022/06/08 17:22:01;;;;;;;20.67;4.43;;;;;;;;;;4376692;32;20026;-79
2022/06/08 17:24:27;;;;;;;17.25;4.05;;;;;;;;;;4377482;32;20062;-78
2022/06/08 17:27:00;;;;;;;13.23;3.62;;;;;;;;;;4377502;32;20031;-79
2022/06/08 17:29:27;;;;;;;16.62;4.55;;;;;;;;;;4377974;32;20054;-80
2022/06/08 17:31:52;;;;;;;20.65;4.93;;;;;;;;;;4376695;32;20053;-80
2022/06/08 17:34:18;;;;;;;18.77;4.37;;;;;;;;;;4376912;32;20356;-79
2022/06/08 17:36:43;;;;;;;15.88;4.37;;;;;;;;;;4376488;32;20026;-79
2022/06/08 17:39:11;;;;;;;22.48;5.22;;;;;;;;;;4377395;32;20087;-75
2022/06/08 17:41:47;;;;;;;16.30;4.50;;;;;;;;;;4377449;32;20031;-78
2022/06/08 17:44:13;;;;;;;19.27;5.85;;;;;;;;;;4377574;32;20065;-78
2022/06/08 17:46:38;;;;;;;21.90;5.10;;;;;;;;;;4376341;32;20039;-79
2022/06/08 17:49:04;;;;;;;16.58;4.30;;;;;;;;;;4376843;32;20027;-75
2022/06/08 17:51:53;;;;;;;18.02;4.95;;;;;;;;;;4376711;32;20355;-79
2022/06/08 17:54:50;;;;;;;19.55;4.22;;;;;;;;;;4361424;32;20023;-79
2022/06/08 17:57:15;;;;;;;14.53;4.13;;;;;;;;;;4361472;32;20035;-79
2022/06/08 17:59:44;;;;;;;16.00;4.28;;;;;;;;;;4361106;32;20054;-80
2022/06/08 18:02:20;;;;;;;14.80;3.70;;;;;;;;;;4362214;32;20036;-76
2022/06/08 18:04:45;;;;;;;12.40;3.87;;;;;;;;;;4361917;32;20389;-77
2022/06/08 18:07:11;;;;;;;15.75;3.87;;;;;;;;;;4360949;32;20099;-78
2022/06/08 18:09:37;;;;;;;12.73;4.05;;;;;;;;;;4361044;32;20406;-80
2022/06/08 18:12:03;;;;;;;13.32;3.40;;;;;;;;;;4360913;32;20042;-78
2022/06/08 18:14:34;;;;;;;12.95;3.08;;;;;;;;;;4359845;32;20031;-79
2022/06/08 18:17:00;;;;;;;15.93;3.40;;;;;;;;;;4360998;32;20031;-78
2022/06/08 18:19:26;;;;;;;13.07;3.50;;;;;;;;;;4360261;32;20066;-78
2022/06/08 18:21:51;;;;;;;14.30;3.60;;;;;;;;;;4362709;32;20058;-79
2022/06/08 18:24:18;;;;;;;12.35;3.33;;;;;;;;;;4360631;33;20112;-79
2022/06/08 18:26:45;;;;;;;10.95;2.95;;;;;;;;;;4360920;32;20054;-78
2022/06/08 18:29:16;;;;;;;14.27;3.85;;;;;;;;;;4361638;32;20032;-79
2022/06/08 18:31:41;;;;;;;15.35;3.42;;;;;;;;;;4360682;32;20031;-78
2022/06/08 18:34:07;;;;;;;16.07;3.90;;;;;;;;;;4360714;32;20453;-77
2022/06/08 18:36:32;;;;;;;18.58;3.62;;;;;;;;;;4361360;32;20190;-76
2022/06/08 18:38:58;;;;;;;16.67;3.08;;;;;;;;;;4361271;32;20035;-78
2022/06/08 18:41:26;;;;;;;14.27;3.60;;;;;;;;;;4360911;32;20031;-79
2022/06/08 18:43:51;;;;;;;12.73;3.15;;;;;;;;;;4361002;32;20061;-79
2022/06/08 18:46:20;;;;;;;16.65;4.07;;;;;;;;;;4360459;32;20058;-78
2022/06/08 18:48:46;;;;;;;15.23;4.18;;;;;;;;;;4362043;32;20039;-78
2022/06/08 18:51:12;;;;;;;16.20;3.15;;;;;;;;;;4360802;32;20089;-79
2022/06/08 18:53:40;;;;;;;17.25;4.50;;;;;;;;;;4360521;32;20485;-80
2022/06/08 18:56:06;;;;;;;18.12;4.57;;;;;;;;;;4360935;32;20367;-79
2022/06/08 18:58:32;;;;;;;18.95;4.43;;;;;;;;;;4362213;32;20028;-79
2022/06/08 19:00:58;;;;;;;13.15;3.62;;;;;;;;;;4360794;32;20092;-77
2022/06/08 19:03:23;;;;;;;19.48;3.90;;;;;;;;;;4361228;32;20425;-79
2022/06/08 19:05:52;;;;;;;19.10;4.18;;;;;;;;;;4361191;32;20081;-79
2022/06/08 19:08:22;;;;;;;15.25;4.05;;;;;;;;;;4361765;32;20105;-80
2022/06/08 19:10:48;;;;;;;17.85;4.00;;;;;;;;;;4361389;32;20074;-78
2022/06/08 19:13:13;;;;;;;16.95;3.97;;;;;;;;;;4360508;32;20028;-79
2022/06/08 19:15:58;;;;;;;;;;;;;;;;;;;;;
2022/06/08 19:21:11;;;;;;;16.73;3.92;;;;;;;;;;4360781;32;20366;-79
2022/06/08 19:23:50;;;;;;;21.92;4.12;;;;;;;;;;4354520;32;20027;-78
2022/06/08 19:26:16;;;;;;;26.35;4.37;;;;;;;;;;4361342;32;20431;-78
2022/06/08 19:28:44;;;;;;;15.35;3.17;;;;;;;;;;4360493;32;20027;-77
2022/06/08 19:31:13;;;;;;;21.27;4.80;;;;;;;;;;4360118;32;20027;-78
2022/06/08 19:33:48;;;;;;;14.93;3.60;;;;;;;;;;4360458;32;20134;-79
2022/06/08 19:36:16;;;;;;;16.60;4.18;;;;;;;;;;4360444;33;20020;-79
2022/06/08 19:38:52;;;;;;;14.32;3.30;;;;;;;;;;4360164;32;20027;-78
2022/06/08 19:41:20;;;;;;;18.70;3.83;;;;;;;;;;4359744;33;20042;-79
2022/06/08 19:43:46;;;;;;;15.45;3.55;;;;;;;;;;4360207;33;20069;-79
2022/06/08 19:46:11;;;;;;;16.00;3.97;;;;;;;;;;4361363;33;20059;-78